Time;durP1;ratioP1;P1;durP2;ratioP2;P2;SDS_P1;SDS_P2;PMS_P1;PMS_P2;Temp;Humidity;BMP_temperature;BMP_pressure;BME280_temperature;BME280_humidity;BME280_pressure;Samples;Min_cycle;Max_cycle;Signal;HPM_P1;HPM_P2
2022/10/28 00:01:03;;;;;;;20.10;12.43;;;;;;;3.31;78.18;100160.41;6204671;22;20011;-74
2022/10/28 00:03:27;;;;;;;18.48;10.13;;;;;;;3.34;77.75;100168.22;6230893;22;20094;-67
2022/10/28 00:05:53;;;;;;;16.83;10.10;;;;;;;3.37;77.83;100160.22;6204187;22;20058;-66
2022/10/28 00:08:17;;;;;;;15.63;10.10;;;;;;;3.36;77.83;100159.34;6231198;22;20027;-66
2022/10/28 00:10:42;;;;;;;18.45;11.05;;;;;;;3.42;78.35;100153.00;6206067;22;20019;-71
2022/10/28 00:13:07;;;;;;;17.55;10.77;;;;;;;3.45;78.45;100150.25;6231436;22;20133;-69
2022/10/28 00:15:34;;;;;;;13.75;9.38;;;;;;;3.53;78.35;100156.97;6230505;22;20016;-68
2022/10/28 00:17:59;;;;;;;16.08;10.38;;;;;;;3.56;78.01;100153.38;6231003;22;20012;-65
2022/10/28 00:20:24;;;;;;;16.08;9.73;;;;;;;3.55;78.30;100151.66;6231412;22;20046;-67
2022/10/28 00:22:49;;;;;;;15.35;9.07;;;;;;;3.63;78.36;100152.25;6231562;22;20046;-68
2022/10/28 00:25:13;;;;;;;19.73;11.10;;;;;;;3.58;78.44;100154.19;6233770;22;20015;-68
2022/10/28 00:27:38;;;;;;;15.55;10.18;;;;;;;3.66;77.79;100149.50;6231774;22;20744;-66
2022/10/28 00:30:03;;;;;;;14.82;8.65;;;;;;;3.72;77.77;100148.44;6206527;22;20051;-68
2022/10/28 00:32:29;;;;;;;14.45;9.00;;;;;;;3.73;77.68;100151.00;6231266;22;20019;-73
2022/10/28 00:34:54;;;;;;;12.90;8.70;;;;;;;3.74;77.22;100151.88;6231648;22;20024;-65
2022/10/28 00:37:18;;;;;;;16.83;9.75;;;;;;;3.73;77.10;100148.38;6228947;22;20069;-73
2022/10/28 00:39:43;;;;;;;12.25;8.32;;;;;;;3.72;77.66;100145.81;6232227;22;20015;-67
2022/10/28 00:42:09;;;;;;;13.27;8.60;;;;;;;3.81;77.72;100148.13;6242361;22;20094;-72
2022/10/28 00:44:57;;;;;;;15.25;9.20;;;;;;;3.89;77.60;100153.97;6231566;22;20027;-69
2022/10/28 00:47:50;;;;;;;16.02;8.40;;;;;;;4.00;77.35;100147.38;6232069;22;20015;-75
2022/10/28 00:50:33;;;;;;;12.60;7.85;;;;;;;3.93;76.85;100142.41;6233458;22;20022;-74
2022/10/28 00:53:03;;;;;;;15.57;9.98;;;;;;;3.87;77.08;100138.19;6232185;22;20019;-69
2022/10/28 00:55:30;;;;;;;13.20;8.93;;;;;;;3.89;77.13;100141.63;6231108;22;20020;-74
2022/10/28 00:57:56;;;;;;;10.25;7.57;;;;;;;3.95;77.02;100146.69;6231655;22;20069;-72
2022/10/28 01:00:22;;;;;;;13.82;8.57;;;;;;;3.96;77.27;100152.81;6229277;22;20085;-68
2022/10/28 01:02:48;;;;;;;12.50;8.05;;;;;;;3.97;76.85;100155.41;6233743;22;20450;-72
2022/10/28 01:05:16;;;;;;;15.32;8.13;;;;;;;4.02;77.10;100157.88;6229854;22;20029;-72
2022/10/28 01:07:41;;;;;;;11.63;8.45;;;;;;;4.08;77.08;100151.50;6228820;22;20073;-69
2022/10/28 01:10:07;;;;;;;13.38;8.55;;;;;;;4.14;76.64;100152.16;6227617;22;20011;-69
2022/10/28 01:12:47;;;;;;;11.93;7.35;;;;;;;4.20;76.24;100158.97;6230842;22;20012;-67
2022/10/28 01:15:27;;;;;;;12.95;8.35;;;;;;;4.26;76.41;100149.06;6229441;22;20522;-67
2022/10/28 01:17:57;;;;;;;14.13;9.02;;;;;;;4.23;76.40;100154.44;6230763;22;20018;-72
2022/10/28 01:21:00;;;;;;;12.18;7.50;;;;;;;4.30;75.93;100153.28;6229248;22;20023;-69
2022/10/28 01:23:40;;;;;;;12.45;8.40;;;;;;;4.31;75.58;100154.16;6228826;22;20094;-70
2022/10/28 01:26:18;;;;;;;12.35;8.55;;;;;;;4.28;75.55;100154.28;6230172;22;20026;-70
2022/10/28 01:29:13;;;;;;;16.23;8.02;;;;;;;4.29;75.68;100150.69;6230929;22;20098;-72
2022/10/28 01:31:44;;;;;;;13.90;9.32;;;;;;;4.23;75.34;100141.25;6230549;22;20359;-73
2022/10/28 01:34:26;;;;;;;13.07;7.90;;;;;;;4.22;75.17;100143.94;6228934;22;20023;-77
2022/10/28 01:37:17;;;;;;;12.25;8.02;;;;;;;4.29;75.17;100142.78;6231015;22;20031;-73
2022/10/28 01:39:51;;;;;;;12.35;7.95;;;;;;;4.17;75.08;100130.09;6230775;22;20020;-71
2022/10/28 01:42:26;;;;;;;;;;;;;;;4.18;75.27;100130.00;6241050;22;20020;-69
2022/10/28 01:44:53;;;;;;;12.70;7.93;;;;;;;4.13;75.14;100128.47;6229506;22;19923;-79
2022/10/28 01:47:39;;;;;;;11.50;7.07;;;;;;;4.16;74.99;100134.50;6231041;22;20022;-68
2022/10/28 01:50:14;;;;;;;10.48;7.30;;;;;;;4.01;75.02;100135.06;6203884;22;20126;-72
2022/10/28 01:52:39;;;;;;;;;;;;;;;4.06;74.94;100132.25;6230954;22;20015;-71
2022/10/28 01:55:14;;;;;;;13.18;7.43;;;;;;;3.95;75.25;100132.66;6229639;22;19922;-69
2022/10/28 01:57:42;;;;;;;12.80;7.60;;;;;;;3.83;76.32;100133.09;6228251;22;20787;-67
2022/10/28 02:00:08;;;;;;;12.20;8.30;;;;;;;3.81;76.44;100134.94;6229435;22;20041;-66
2022/10/28 02:02:38;;;;;;;11.90;8.25;;;;;;;3.82;76.80;100134.88;6229861;22;20041;-71
2022/10/28 02:05:22;;;;;;;13.98;8.25;;;;;;;3.90;76.41;100132.81;6228056;22;20023;-66
2022/10/28 02:07:52;;;;;;;12.90;8.33;;;;;;;3.88;76.61;100137.28;6229732;22;20016;-64
2022/10/28 02:10:31;;;;;;;11.15;7.18;;;;;;;3.93;76.54;100137.97;6229256;22;20015;-69
2022/10/28 02:13:01;;;;;;;11.00;7.45;;;;;;;3.98;76.45;100135.16;6227196;22;20020;-70
2022/10/28 02:15:48;;;;;;;11.07;7.70;;;;;;;4.03;76.30;100142.91;6228796;22;20018;-66
2022/10/28 02:18:19;;;;;;;13.65;7.57;;;;;;;4.08;76.38;100135.66;6227328;22;20031;-68
2022/10/28 02:21:39;;;;;;;11.95;7.45;;;;;;;4.16;75.91;100123.94;6227786;22;20050;-67
2022/10/28 02:24:21;;;;;;;10.85;8.07;;;;;;;4.18;75.34;100127.34;6219148;22;20030;-65
2022/10/28 02:26:54;;;;;;;14.32;7.95;;;;;;;4.12;74.95;100124.97;6227947;22;20042;-65
2022/10/28 02:30:00;;;;;;;11.07;7.45;;;;;;;4.11;75.71;100128.50;6231427;22;20020;-69
2022/10/28 02:32:29;;;;;;;12.73;8.02;;;;;;;4.05;75.79;100139.31;6107498;23;20129;-67
2022/10/28 02:34:58;;;;;;;11.75;7.72;;;;;;;4.07;75.57;100137.44;6057834;23;20064;-68
2022/10/28 02:37:34;;;;;;;12.38;7.57;;;;;;;4.19;75.34;100129.06;6057364;23;20017;-69
2022/10/28 02:40:06;;;;;;;14.98;8.77;;;;;;;4.03;76.06;100127.94;6105913;23;20091;-66
2022/10/28 02:42:37;;;;;;;13.13;8.90;;;;;;;4.00;76.41;100126.28;6105854;23;20357;-70
2022/10/28 02:45:13;;;;;;;14.45;8.68;;;;;;;4.13;75.57;100133.75;6106930;23;20649;-67
2022/10/28 02:47:44;;;;;;;13.73;7.57;;;;;;;4.03;76.13;100135.00;6105783;23;20149;-68
2022/10/28 02:50:16;;;;;;;13.32;8.15;;;;;;;3.99;76.45;100137.75;6106613;23;20021;-65
2022/10/28 02:52:43;;;;;;;12.75;7.78;;;;;;;3.97;77.01;100143.97;6106549;23;20027;-65
2022/10/28 02:55:08;;;;;;;12.57;7.80;;;;;;;4.03;77.01;100143.78;6106747;23;20023;-76
2022/10/28 02:57:37;;;;;;;12.82;8.80;;;;;;;4.05;77.03;100135.81;6057440;23;20017;-68
2022/10/28 03:00:08;;;;;;;10.98;7.03;;;;;;;4.10;76.82;100147.03;6106763;23;20449;-70
2022/10/28 03:02:32;;;;;;;12.85;7.65;;;;;;;4.14;76.64;100148.66;6081353;23;20049;-69
2022/10/28 03:04:57;;;;;;;14.80;8.52;;;;;;;4.13;76.13;100146.94;6106552;23;20017;-66
2022/10/28 03:07:21;;;;;;;12.30;8.77;;;;;;;4.14;76.48;100151.28;6142835;22;20016;-66
2022/10/28 03:09:46;;;;;;;12.77;7.50;;;;;;;4.14;76.50;100146.88;6229117;22;20407;-72
2022/10/28 03:12:11;;;;;;;14.60;7.80;;;;;;;4.16;76.69;100152.09;6229067;22;20011;-67
2022/10/28 03:14:35;;;;;;;12.38;8.00;;;;;;;4.19;76.68;100144.91;6228101;22;20401;-70
2022/10/28 03:17:00;;;;;;;10.27;7.45;;;;;;;4.20;76.93;100145.78;6201677;22;20026;-71
2022/10/28 03:19:25;;;;;;;13.38;7.50;;;;;;;4.22;76.78;100134.25;6229057;22;20099;-69
2022/10/28 03:21:49;;;;;;;12.98;8.48;;;;;;;4.26;76.78;100142.91;6229539;22;20020;-69
2022/10/28 03:24:14;;;;;;;13.63;7.78;;;;;;;4.22;76.62;100142.16;6228609;22;20042;-67
2022/10/28 03:26:38;;;;;;;9.85;6.70;;;;;;;4.24;76.55;100142.97;6229793;22;20022;-67
2022/10/28 03:29:03;;;;;;;16.75;8.52;;;;;;;4.25;77.03;100139.41;6230507;22;20024;-69
2022/10/28 03:31:27;;;;;;;16.13;8.77;;;;;;;4.26;76.66;100146.44;6231759;22;20016;-67
2022/10/28 03:33:52;;;;;;;12.45;7.82;;;;;;;4.24;76.28;100126.28;6233725;22;20047;-65
2022/10/28 03:36:17;;;;;;;14.68;7.88;;;;;;;4.28;75.60;100133.16;6235023;22;20015;-66
2022/10/28 03:38:41;;;;;;;11.40;7.20;;;;;;;4.17;75.44;100133.59;6210792;22;20389;-70
2022/10/28 03:41:06;;;;;;;10.85;6.85;;;;;;;4.05;76.18;100135.81;6235428;22;20027;-67
2022/10/28 03:43:30;;;;;;;13.13;8.02;;;;;;;4.00;76.99;100134.19;6231444;22;20022;-66
2022/10/28 03:45:55;;;;;;;10.70;7.50;;;;;;;3.99;77.95;100131.59;6230977;22;20727;-68
2022/10/28 03:48:19;;;;;;;11.95;8.85;;;;;;;3.94;77.81;100129.16;6230798;22;20102;-66
2022/10/28 03:50:44;;;;;;;13.10;8.05;;;;;;;3.94;78.25;100129.16;6228856;22;20447;-67
2022/10/28 03:53:09;;;;;;;13.25;8.32;;;;;;;3.96;78.07;100132.56;6230060;22;20019;-68
2022/10/28 03:55:33;;;;;;;10.43;6.88;;;;;;;3.99;78.43;100128.97;6203366;22;20065;-70
2022/10/28 03:58:02;;;;;;;11.25;7.63;;;;;;;4.09;78.01;100118.94;6229177;22;20012;-69
2022/10/28 04:00:27;;;;;;;12.82;7.80;;;;;;;4.09;77.74;100125.06;6178410;22;20018;-67
2022/10/28 04:02:52;;;;;;;16.73;7.70;;;;;;;4.05;77.46;100135.81;6228686;22;20016;-66
2022/10/28 04:05:17;;;;;;;10.93;6.70;;;;;;;4.05;77.59;100110.28;6228946;22;20354;-67
2022/10/28 04:07:42;;;;;;;10.45;5.95;;;;;;;4.17;76.82;100109.84;6204949;22;20026;-66
2022/10/28 04:10:07;;;;;;;11.25;7.38;;;;;;;4.04;76.62;100112.97;6230752;22;20043;-65
2022/10/28 04:12:32;;;;;;;11.13;7.47;;;;;;;4.06;76.69;100116.44;6229183;22;20020;-69
2022/10/28 04:14:57;;;;;;;18.73;8.77;;;;;;;3.96;77.41;100102.69;6231730;22;20439;-71
2022/10/28 04:17:22;;;;;;;13.30;7.85;;;;;;;3.89;78.19;100111.75;6229176;22;20015;-70
2022/10/28 04:19:46;;;;;;;13.27;7.47;;;;;;;3.95;77.45;100116.81;6230730;22;20016;-69
2022/10/28 04:22:11;;;;;;;10.38;7.05;;;;;;;3.89;78.00;100120.53;6228998;22;20019;-70
2022/10/28 04:24:35;;;;;;;10.18;6.70;;;;;;;3.91;78.25;100113.44;6230492;22;20411;-70
2022/10/28 04:27:00;;;;;;;17.73;9.48;;;;;;;3.83;79.11;100114.63;6232131;22;20077;-69
2022/10/28 04:29:24;;;;;;;12.48;8.27;;;;;;;3.94;79.26;100115.97;6232112;22;20016;-70
2022/10/28 04:31:49;;;;;;;13.95;7.93;;;;;;;4.03;79.37;100112.13;6230241;22;20069;-70
2022/10/28 04:34:14;;;;;;;11.70;7.50;;;;;;;4.10;78.82;100107.47;6235987;22;20079;-69
2022/10/28 04:36:38;;;;;;;14.23;7.65;;;;;;;4.10;78.99;100108.31;6209343;22;20112;-68
2022/10/28 04:39:03;;;;;;;14.13;9.85;;;;;;;4.13;78.74;100104.72;6235176;22;20015;-68
2022/10/28 04:41:27;;;;;;;13.68;8.63;;;;;;;4.12;79.27;100105.63;6237214;22;20016;-68
2022/10/28 04:43:54;;;;;;;14.73;9.57;;;;;;;4.15;79.19;100102.88;6236381;22;20016;-69
2022/10/28 04:46:19;;;;;;;12.48;7.88;;;;;;;4.25;78.54;100104.25;6237436;22;20086;-70
2022/10/28 04:48:46;;;;;;;14.15;8.88;;;;;;;4.23;78.69;100117.50;6233921;22;20035;-72
2022/10/28 04:51:10;;;;;;;12.60;8.38;;;;;;;4.29;79.00;100114.63;6205997;22;20153;-70
2022/10/28 04:53:35;;;;;;;19.75;8.25;;;;;;;4.36;78.77;100126.69;6232867;22;20042;-71
2022/10/28 04:56:00;;;;;;;14.77;8.63;;;;;;;4.45;78.28;100125.44;6230992;22;20086;-73
2022/10/28 04:58:25;;;;;;;15.60;9.38;;;;;;;4.41;78.40;100118.56;6235983;22;20016;-70
2022/10/28 05:00:50;;;;;;;13.07;7.55;;;;;;;4.44;78.58;100114.94;6234496;22;20067;-70
2022/10/28 05:03:15;;;;;;;14.32;7.68;;;;;;;4.51;78.57;100117.31;6233541;22;20050;-69
2022/10/28 05:05:39;;;;;;;13.20;7.95;;;;;;;4.56;77.79;100110.06;6236485;22;20069;-70
2022/10/28 05:08:04;;;;;;;15.63;8.32;;;;;;;4.58;77.98;100110.84;6236020;22;20114;-72
2022/10/28 05:10:30;;;;;;;12.00;7.75;;;;;;;4.63;78.24;100108.00;6231369;22;20106;-69
2022/10/28 05:12:54;;;;;;;13.55;8.57;;;;;;;4.65;77.74;100107.03;6233183;22;20609;-70
2022/10/28 05:15:20;;;;;;;14.45;7.53;;;;;;;4.73;77.76;100102.34;6232148;22;20809;-69
2022/10/28 05:17:46;;;;;;;12.63;7.45;;;;;;;4.74;77.60;100103.16;6229804;22;20016;-70
2022/10/28 05:20:11;;;;;;;14.40;8.77;;;;;;;4.70;77.68;100104.22;6201987;22;20095;-69
2022/10/28 05:22:36;;;;;;;15.50;9.02;;;;;;;4.77;77.12;100103.03;6227954;22;20016;-70
2022/10/28 05:25:01;;;;;;;16.30;7.97;;;;;;;4.81;77.49;100115.22;6230365;22;20314;-70
2022/10/28 05:27:25;;;;;;;14.73;8.07;;;;;;;4.85;77.60;100119.47;6233029;22;20076;-70
2022/10/28 05:29:50;;;;;;;13.60;8.75;;;;;;;4.83;77.57;100115.16;6237074;22;20455;-67
2022/10/28 05:32:14;;;;;;;16.98;9.05;;;;;;;4.88;77.77;100113.19;6235553;22;20454;-66
2022/10/28 05:34:39;;;;;;;16.27;8.82;;;;;;;4.88;77.19;100113.19;6236883;22;20051;-67
2022/10/28 05:37:04;;;;;;;13.68;8.07;;;;;;;4.85;77.71;100111.53;6234823;22;20019;-66
2022/10/28 05:39:28;;;;;;;17.00;9.52;;;;;;;4.89;77.58;100120.19;6235192;22;20051;-66
2022/10/28 05:41:53;;;;;;;16.20;8.60;;;;;;;4.91;77.56;100113.06;6236542;22;20019;-65
2022/10/28 05:44:17;;;;;;;15.48;8.82;;;;;;;4.92;77.47;100126.22;6231645;22;20070;-69
2022/10/28 05:46:42;;;;;;;14.35;7.88;;;;;;;4.86;77.55;100107.94;6229878;22;20061;-68
2022/10/28 05:49:07;;;;;;;14.63;8.48;;;;;;;4.88;77.97;100115.81;6228268;22;20012;-66
2022/10/28 05:51:31;;;;;;;15.55;9.82;;;;;;;4.87;77.85;100119.38;6229441;22;20015;-68
2022/10/28 05:53:56;;;;;;;12.85;8.45;;;;;;;4.94;77.78;100118.22;6229960;22;20016;-67
2022/10/28 05:56:20;;;;;;;24.38;9.30;;;;;;;4.98;77.96;100120.66;6207501;22;20577;-69
2022/10/28 05:58:46;;;;;;;18.60;9.38;;;;;;;5.05;77.80;100118.66;6232732;22;20019;-68
2022/10/28 06:01:11;;;;;;;23.27;8.75;;;;;;;5.06;77.97;100118.59;6235676;22;20020;-68
2022/10/28 06:03:35;;;;;;;15.68;9.52;;;;;;;5.09;77.36;100120.22;6234855;22;20095;-71
2022/10/28 06:06:00;;;;;;;15.18;9.52;;;;;;;5.09;77.64;100123.72;6235005;22;20023;-72
2022/10/28 06:08:25;;;;;;;16.35;8.93;;;;;;;5.15;78.00;100127.03;6235643;22;20366;-70
2022/10/28 06:10:52;;;;;;;18.15;9.68;;;;;;;5.28;77.31;100125.63;6230362;22;20019;-71
2022/10/28 06:13:16;;;;;;;14.68;8.68;;;;;;;5.35;77.26;100116.50;6231168;22;20130;-71
2022/10/28 06:15:41;;;;;;;22.73;9.88;;;;;;;5.33;76.92;100116.56;6229433;22;20012;-72
2022/10/28 06:18:05;;;;;;;14.82;7.65;;;;;;;5.42;76.79;100115.28;6230701;22;20090;-71
2022/10/28 06:20:30;;;;;;;16.00;8.75;;;;;;;5.48;76.51;100107.09;6229264;22;20024;-71
2022/10/28 06:22:56;;;;;;;11.55;7.95;;;;;;;5.48;76.92;100102.69;6232222;22;20466;-71
2022/10/28 06:25:22;;;;;;;14.65;9.40;;;;;;;5.53;77.16;100112.22;6230113;22;20019;-70
2022/10/28 06:27:57;;;;;;;15.35;9.15;;;;;;;5.66;76.23;100110.72;6228893;22;20357;-70
2022/10/28 06:30:23;;;;;;;16.27;9.00;;;;;;;5.67;76.26;100115.94;6227943;22;20100;-71
2022/10/28 06:32:48;;;;;;;15.30;9.15;;;;;;;5.74;76.58;100119.22;6228399;22;20023;-71
2022/10/28 06:35:13;;;;;;;15.95;8.82;;;;;;;5.77;76.69;100114.63;6230475;22;20023;-69
2022/10/28 06:37:37;;;;;;;16.25;9.13;;;;;;;5.77;76.65;100111.13;6228064;22;20019;-69
2022/10/28 06:40:02;;;;;;;17.75;9.38;;;;;;;5.75;76.24;100119.16;6230050;22;20073;-69
2022/10/28 06:42:27;;;;;;;18.80;8.95;;;;;;;5.74;76.19;100114.78;6229904;22;20026;-69
2022/10/28 06:44:53;;;;;;;13.35;8.75;;;;;;;5.76;76.39;100109.38;6229261;22;20051;-67
2022/10/28 06:47:20;;;;;;;16.15;8.27;;;;;;;5.69;76.39;100100.88;6231876;22;20020;-66
2022/10/28 06:49:44;;;;;;;16.00;8.98;;;;;;;5.67;77.28;100096.56;6239336;22;20027;-65
2022/10/28 06:52:09;;;;;;;14.75;8.82;;;;;;;5.65;76.61;100093.13;6237339;22;20019;-66
2022/10/28 06:54:34;;;;;;;17.02;8.45;;;;;;;5.62;76.46;100090.66;6242221;22;20018;-66
2022/10/28 06:56:58;;;;;;;14.05;9.00;;;;;;;5.53;77.62;100101.63;6233933;22;20102;-69
2022/10/28 06:59:23;;;;;;;17.98;10.88;;;;;;;5.41;78.83;100097.75;6232484;22;20026;-69
2022/10/28 07:01:48;;;;;;;17.67;9.00;;;;;;;5.50;79.43;100107.91;6230163;22;20045;-70
2022/10/28 07:04:12;;;;;;;16.88;9.25;;;;;;;5.58;79.21;100095.19;6229965;22;20219;-71
2022/10/28 07:06:37;;;;;;;15.63;9.90;;;;;;;5.67;79.19;100092.16;6229570;22;20016;-72
2022/10/28 07:09:02;;;;;;;14.40;8.40;;;;;;;5.83;79.40;100092.34;6204025;22;20043;-70
2022/10/28 07:11:27;;;;;;;24.40;9.98;;;;;;;6.00;79.41;100092.44;6229643;22;20035;-70
2022/10/28 07:13:51;;;;;;;17.67;9.32;;;;;;;6.13;79.07;100079.50;6230330;22;20015;-71
2022/10/28 07:16:16;;;;;;;18.33;9.85;;;;;;;6.30;78.48;100078.75;6230992;22;20050;-70
2022/10/28 07:18:41;;;;;;;18.55;9.32;;;;;;;6.43;77.13;100083.38;6231603;22;20016;-70
2022/10/28 07:21:05;;;;;;;14.45;8.77;;;;;;;6.52;77.56;100082.09;6231264;22;20015;-70
2022/10/28 07:23:31;;;;;;;17.45;9.25;;;;;;;6.65;75.46;100085.00;6233183;22;20022;-71
2022/10/28 07:25:56;;;;;;;15.00;9.43;;;;;;;6.46;75.93;100083.22;6232182;22;20039;-71
2022/10/28 07:28:25;;;;;;;17.67;9.13;;;;;;;6.52;76.30;100084.75;6231759;22;20500;-72
2022/10/28 07:30:49;;;;;;;13.00;8.23;;;;;;;6.50;76.42;100089.25;6229599;22;20027;-72
2022/10/28 07:33:14;;;;;;;15.85;9.20;;;;;;;6.48;76.73;100085.81;6230967;22;20011;-71
2022/10/28 07:35:40;;;;;;;15.18;10.02;;;;;;;6.51;76.98;100083.00;6204357;22;20016;-71
2022/10/28 07:38:04;;;;;;;19.30;9.52;;;;;;;6.63;76.83;100087.72;6230721;22;20020;-71
2022/10/28 07:40:29;;;;;;;19.27;10.00;;;;;;;6.62;76.87;100085.16;6204061;22;20462;-69
2022/10/28 07:42:54;;;;;;;17.73;9.95;;;;;;;6.73;76.81;100082.84;6231021;22;20341;-71
2022/10/28 07:45:19;;;;;;;18.60;9.68;;;;;;;6.85;76.07;100087.53;6230873;22;20401;-70
2022/10/28 07:47:44;;;;;;;16.80;9.57;;;;;;;6.88;75.92;100088.22;6228640;22;20091;-70
2022/10/28 07:50:10;;;;;;;17.30;8.75;;;;;;;6.98;75.94;100085.16;6231020;22;20081;-69
2022/10/28 07:52:35;;;;;;;15.10;9.15;;;;;;;7.08;75.66;100094.34;6231175;22;20047;-70
2022/10/28 07:55:00;;;;;;;16.25;9.30;;;;;;;7.19;75.42;100086.72;6231199;22;20099;-72
2022/10/28 07:57:25;;;;;;;17.13;9.68;;;;;;;7.21;75.09;100084.84;6203596;22;20038;-70
2022/10/28 07:59:49;;;;;;;15.60;8.98;;;;;;;7.14;75.09;100081.63;6229970;22;20015;-70
2022/10/28 08:02:19;;;;;;;17.08;9.35;;;;;;;7.32;75.04;100079.88;6231058;22;20023;-71
2022/10/28 08:04:44;;;;;;;13.55;8.98;;;;;;;7.47;74.49;100080.84;6231983;22;20019;-69
2022/10/28 08:07:09;;;;;;;16.48;8.63;;;;;;;7.57;74.82;100085.59;6233464;22;20016;-70
2022/10/28 08:09:34;;;;;;;15.18;9.30;;;;;;;7.71;74.68;100084.00;6235181;22;20102;-71
2022/10/28 08:11:58;;;;;;;15.20;7.93;;;;;;;7.84;73.95;100079.78;6235059;22;20050;-70
2022/10/28 08:14:23;;;;;;;18.25;8.43;;;;;;;7.94;73.39;100086.31;6237209;22;20023;-70
2022/10/28 08:16:47;;;;;;;14.85;8.05;;;;;;;7.98;72.99;100082.56;6237017;22;20458;-70
2022/10/28 08:19:12;;;;;;;15.57;9.88;;;;;;;8.00;73.41;100080.69;6232927;22;20015;-68
2022/10/28 08:21:37;;;;;;;14.70;8.60;;;;;;;8.02;72.79;100082.28;6230991;22;20026;-70
2022/10/28 08:24:01;;;;;;;14.75;8.52;;;;;;;8.02;72.90;100079.63;6205199;22;20011;-68
2022/10/28 08:26:26;;;;;;;20.25;9.50;;;;;;;8.03;72.87;100091.13;6231926;22;20350;-70
2022/10/28 08:28:51;;;;;;;18.05;9.70;;;;;;;8.02;72.89;100089.41;6231099;22;20332;-69
2022/10/28 08:31:16;;;;;;;13.50;8.57;;;;;;;7.99;72.76;100101.06;6231527;22;20412;-67
2022/10/28 08:33:45;;;;;;;17.30;9.35;;;;;;;8.00;72.56;100091.31;6229703;22;20582;-68
2022/10/28 08:36:13;;;;;;;17.95;9.30;;;;;;;7.88;72.72;100090.16;6231496;22;20046;-68
2022/10/28 08:38:38;;;;;;;17.25;10.10;;;;;;;7.77;73.19;100091.66;6203812;22;20011;-68
2022/10/28 08:41:18;;;;;;;21.25;9.70;;;;;;;7.82;73.13;100081.66;6230354;22;20347;-67
2022/10/28 08:43:45;;;;;;;13.80;8.57;;;;;;;7.84;73.89;100085.09;6243107;22;20398;-67
2022/10/28 08:46:09;;;;;;;20.25;9.73;;;;;;;7.83;73.27;100073.63;6229446;22;20018;-67
2022/10/28 08:48:35;;;;;;;14.77;9.35;;;;;;;7.90;73.67;100075.00;6231294;22;20012;-67
2022/10/28 08:51:23;;;;;;;18.52;10.07;;;;;;;7.94;73.49;100070.38;6230846;22;20068;-67
2022/10/28 08:53:59;;;;;;;16.13;8.60;;;;;;;8.05;73.44;100083.06;6230808;22;20090;-68
2022/10/28 08:56:46;;;;;;;18.08;10.35;;;;;;;8.08;73.51;100067.84;6228735;22;20022;-69
2022/10/28 08:59:23;;;;;;;21.63;9.95;;;;;;;8.17;73.43;100063.81;6230365;22;20016;-70
2022/10/28 09:01:52;;;;;;;18.63;10.27;;;;;;;8.23;73.46;100066.16;6228541;22;20020;-70
2022/10/28 09:04:31;;;;;;;16.80;9.77;;;;;;;8.40;73.13;100062.59;6230834;22;20016;-69
2022/10/28 09:06:55;;;;;;;14.45;8.98;;;;;;;8.52;72.58;100054.78;6230640;22;20584;-70
2022/10/28 09:09:22;;;;;;;19.20;10.85;;;;;;;8.63;72.20;100056.84;6229818;22;20471;-72
2022/10/28 09:12:05;;;;;;;17.98;11.48;;;;;;;8.98;71.88;100057.47;6204844;22;20016;-71
2022/10/28 09:15:03;;;;;;;18.52;9.85;;;;;;;9.24;71.08;100054.13;6231466;22;20022;-71
2022/10/28 09:17:53;;;;;;;19.63;10.48;;;;;;;9.51;69.97;100054.28;6230922;22;20090;-70
2022/10/28 09:20:38;;;;;;;16.38;9.38;;;;;;;9.48;69.02;100049.97;6229598;22;20020;-70
2022/10/28 09:23:21;;;;;;;15.93;9.15;;;;;;;9.59;69.87;100049.34;6228811;22;20023;-70
2022/10/28 09:26:09;;;;;;;20.45;10.43;;;;;;;9.74;69.73;100048.41;6228795;22;20462;-71
2022/10/28 09:28:34;;;;;;;17.58;10.07;;;;;;;10.16;68.15;100041.34;6229393;22;20019;-70
2022/10/28 09:31:26;;;;;;;15.88;9.48;;;;;;;10.83;66.66;100037.03;6230207;22;20054;-73
2022/10/28 09:33:59;;;;;;;17.63;9.75;;;;;;;11.28;64.87;100033.94;6230580;22;20023;-70
2022/10/28 09:36:33;;;;;;;18.40;9.75;;;;;;;11.40;64.78;100026.03;6229515;22;20020;-71
2022/10/28 09:39:00;;;;;;;14.43;9.57;;;;;;;10.95;64.91;100020.16;6230288;22;20034;-71
2022/10/28 09:41:37;;;;;;;18.73;9.35;;;;;;;10.85;65.10;100025.28;6230843;22;20020;-70
2022/10/28 09:44:12;;;;;;;20.75;9.65;;;;;;;10.96;66.01;100018.34;6229363;22;20019;-70
2022/10/28 09:46:38;;;;;;;14.18;8.63;;;;;;;11.23;64.89;100020.03;6231245;22;20019;-70
2022/10/28 09:49:17;;;;;;;15.38;10.18;;;;;;;11.14;65.09;100015.31;6232487;22;20019;-77
2022/10/28 09:51:51;;;;;;;15.98;9.60;;;;;;;11.02;65.32;100010.81;6233487;22;20015;-70
2022/10/28 09:54:17;;;;;;;16.70;9.02;;;;;;;10.95;64.68;100016.69;6229022;22;20439;-70
2022/10/28 09:56:42;;;;;;;16.65;8.07;;;;;;;10.86;65.31;100002.13;6232369;22;20470;-70
2022/10/28 09:59:13;;;;;;;18.00;9.68;;;;;;;10.70;65.63;100007.63;6231027;22;20439;-70
2022/10/28 10:01:40;;;;;;;12.15;8.38;;;;;;;10.44;65.77;100012.00;6231889;22;20020;-70
2022/10/28 10:04:22;;;;;;;17.50;8.90;;;;;;;10.42;66.55;100007.72;6229724;22;20019;-69
2022/10/28 10:06:51;;;;;;;13.32;8.63;;;;;;;10.30;66.57;100004.03;6228271;22;20135;-71
2022/10/28 10:09:24;;;;;;;14.98;9.25;;;;;;;10.14;67.53;100005.97;6202027;22;20016;-71
2022/10/28 10:11:50;;;;;;;15.32;9.13;;;;;;;9.96;67.22;99999.13;6230996;22;20073;-71
2022/10/28 10:14:21;;;;;;;12.90;8.75;;;;;;;9.87;68.23;99997.03;6230090;22;20458;-69
2022/10/28 10:16:56;;;;;;;18.13;10.73;;;;;;;9.88;68.60;99998.75;6228906;22;20352;-73
2022/10/28 10:19:21;;;;;;;20.73;10.63;;;;;;;9.70;68.22;99992.78;6230342;22;20293;-72
2022/10/28 10:21:51;;;;;;;15.20;9.30;;;;;;;9.71;68.96;99992.66;6229806;22;20043;-69
2022/10/28 10:24:34;;;;;;;17.90;9.60;;;;;;;9.71;68.96;99992.66;6230118;22;20073;-70
2022/10/28 10:27:01;;;;;;;18.27;9.68;;;;;;;9.65;69.45;99993.06;6230416;22;20125;-68
2022/10/28 10:29:27;;;;;;;16.58;9.30;;;;;;;9.66;69.30;99993.94;6227859;22;20015;-68
2022/10/28 10:32:13;;;;;;;15.80;9.35;;;;;;;9.74;69.21;99986.31;6202086;22;20023;-72
2022/10/28 10:34:43;;;;;;;16.35;8.95;;;;;;;9.66;69.43;99981.47;6228933;22;20073;-71
2022/10/28 10:37:17;;;;;;;15.07;9.23;;;;;;;9.74;69.31;99973.00;6202954;22;20015;-71
2022/10/28 10:39:42;;;;;;;14.25;9.30;;;;;;;9.78;69.23;99969.19;6202800;22;20016;-70
2022/10/28 10:42:21;;;;;;;15.77;9.23;;;;;;;9.84;69.08;99967.00;6228777;22;20031;-72
2022/10/28 10:44:51;;;;;;;17.38;9.55;;;;;;;9.84;69.19;99972.31;6228882;22;20019;-71
2022/10/28 10:47:18;;;;;;;17.55;9.30;;;;;;;9.84;69.63;99974.13;6228503;22;20011;-69
2022/10/28 10:49:43;;;;;;;12.90;9.05;;;;;;;9.85;69.21;99975.84;6229436;22;20012;-72
2022/10/28 10:52:19;;;;;;;14.60;8.82;;;;;;;9.87;69.57;99973.94;6230227;22;20088;-69
2022/10/28 10:54:57;;;;;;;11.40;8.18;;;;;;;9.82;69.15;99968.03;6230418;22;20019;-72
2022/10/28 10:57:23;;;;;;;16.05;8.63;;;;;;;9.71;69.28;99971.38;6230463;22;20026;-73
2022/10/28 10:59:51;;;;;;;14.02;9.18;;;;;;;9.63;69.40;99973.66;6204153;22;20045;-69
2022/10/28 11:02:33;;;;;;;14.45;8.55;;;;;;;9.61;70.15;99958.72;6231308;22;20015;-73
2022/10/28 11:05:02;;;;;;;13.63;9.48;;;;;;;9.48;70.41;99963.13;6231872;22;20020;-72
2022/10/28 11:07:28;;;;;;;14.63;9.18;;;;;;;9.52;70.41;99954.84;6205638;22;20383;-75
2022/10/28 11:09:53;;;;;;;15.27;7.90;;;;;;;9.57;70.30;99952.78;6231211;22;20026;-75
2022/10/28 11:12:25;;;;;;;17.65;9.18;;;;;;;9.58;70.54;99957.16;6229663;22;20015;-73
2022/10/28 11:14:56;;;;;;;14.48;8.57;;;;;;;9.64;70.48;99946.09;6205195;22;20039;-71
2022/10/28 11:17:24;;;;;;;14.40;8.52;;;;;;;9.67;70.17;99937.94;6233610;22;20020;-81
2022/10/28 11:19:52;;;;;;;15.77;8.98;;;;;;;9.64;70.36;99943.44;6231986;22;20011;-71
2022/10/28 11:22:31;;;;;;;13.77;8.65;;;;;;;9.70;70.43;99945.72;6235201;22;20019;-69
2022/10/28 11:25:34;;;;;;;18.30;8.43;;;;;;;9.67;70.33;99940.59;6236412;22;20177;-64
2022/10/28 11:28:07;;;;;;;14.77;8.85;;;;;;;9.59;70.88;99932.25;6217636;22;20018;-70
2022/10/28 11:30:46;;;;;;;17.80;7.97;;;;;;;9.69;70.65;99941.34;6239468;22;20016;-71
2022/10/28 11:33:16;;;;;;;14.18;8.00;;;;;;;9.69;70.74;99941.34;6243150;22;20023;-73
2022/10/28 11:35:59;;;;;;;15.93;8.43;;;;;;;9.78;70.33;99940.75;6237083;22;20026;-75